sensor_id;sensor_type;location;lat;lon;timestamp;temperature;humidity
54684;DHT22;40582;53.100;6.686;2023-03-23T00:02:29;10.60;99.90
54684;DHT22;40582;53.100;6.686;2023-03-23T00:04:58;10.70;99.90
54684;DHT22;40582;53.100;6.686;2023-03-23T00:07:26;10.60;99.90
54684;DHT22;40582;53.100;6.686;2023-03-23T00:09:54;10.60;99.90
54684;DHT22;40582;53.100;6.686;2023-03-23T00:12:27;10.70;99.90
54684;DHT22;40582;53.100;6.686;2023-03-23T00:15:03;10.70;99.90
54684;DHT22;40582;53.100;6.686;2023-03-23T00:17:32;10.70;99.90
54684;DHT22;40582;53.100;6.686;2023-03-23T00:20:02;10.70;99.90
54684;DHT22;40582;53.100;6.686;2023-03-23T00:22:30;10.80;99.90
54684;DHT22;40582;53.100;6.686;2023-03-23T00:24:56;10.80;99.90
54684;DHT22;40582;53.100;6.686;2023-03-23T00:27:22;10.80;99.90
54684;DHT22;40582;53.100;6.686;2023-03-23T00:29:49;10.80;99.90
54684;DHT22;40582;53.100;6.686;2023-03-23T00:32:19;10.80;99.90
54684;DHT22;40582;53.100;6.686;2023-03-23T00:34:46;10.80;99.90
54684;DHT22;40582;53.100;6.686;2023-03-23T00:37:14;10.80;99.90
54684;DHT22;40582;53.100;6.686;2023-03-23T00:39:42;10.80;99.90
54684;DHT22;40582;53.100;6.686;2023-03-23T00:42:14;10.80;99.90
54684;DHT22;40582;53.100;6.686;2023-03-23T00:44:40;10.70;99.90
54684;DHT22;40582;53.100;6.686;2023-03-23T00:47:06;10.70;99.90
54684;DHT22;40582;53.100;6.686;2023-03-23T00:49:34;10.70;99.90
54684;DHT22;40582;53.100;6.686;2023-03-23T00:52:01;10.80;99.90
54684;DHT22;40582;53.100;6.686;2023-03-23T00:54:27;10.80;99.90
54684;DHT22;40582;53.100;6.686;2023-03-23T00:56:54;10.80;99.90
54684;DHT22;40582;53.100;6.686;2023-03-23T00:59:20;10.80;99.90
54684;DHT22;40582;53.100;6.686;2023-03-23T01:01:46;10.80;99.90
54684;DHT22;40582;53.100;6.686;2023-03-23T01:04:12;10.80;99.90
54684;DHT22;40582;53.100;6.686;2023-03-23T01:06:42;10.80;99.90
54684;DHT22;40582;53.100;6.686;2023-03-23T01:09:10;10.70;99.90
54684;DHT22;40582;53.100;6.686;2023-03-23T01:11:36;10.70;99.90
54684;DHT22;40582;53.100;6.686;2023-03-23T01:14:04;10.60;99.90
54684;DHT22;40582;53.100;6.686;2023-03-23T01:16:29;10.50;99.90
54684;DHT22;40582;53.100;6.686;2023-03-23T01:18:55;10.50;99.90
54684;DHT22;40582;53.100;6.686;2023-03-23T01:21:21;10.50;99.90
54684;DHT22;40582;53.100;6.686;2023-03-23T01:23:48;10.50;99.90
54684;DHT22;40582;53.100;6.686;2023-03-23T01:26:16;10.50;99.90
54684;DHT22;40582;53.100;6.686;2023-03-23T01:28:43;10.50;99.90
54684;DHT22;40582;53.100;6.686;2023-03-23T01:31:17;10.50;99.90
54684;DHT22;40582;53.100;6.686;2023-03-23T01:33:43;10.50;99.90
54684;DHT22;40582;53.100;6.686;2023-03-23T01:36:14;10.40;99.90
54684;DHT22;40582;53.100;6.686;2023-03-23T01:38:42;10.40;99.90
54684;DHT22;40582;53.100;6.686;2023-03-23T01:41:08;10.40;99.90
54684;DHT22;40582;53.100;6.686;2023-03-23T01:43:34;10.40;99.90
54684;DHT22;40582;53.100;6.686;2023-03-23T01:46:00;10.40;99.90
54684;DHT22;40582;53.100;6.686;2023-03-23T01:48:36;10.40;99.90
54684;DHT22;40582;53.100;6.686;2023-03-23T01:51:14;10.40;99.90
54684;DHT22;40582;53.100;6.686;2023-03-23T01:53:51;10.40;99.90
54684;DHT22;40582;53.100;6.686;2023-03-23T01:56:21;10.40;99.90
54684;DHT22;40582;53.100;6.686;2023-03-23T01:58:52;10.30;99.90
54684;DHT22;40582;53.100;6.686;2023-03-23T02:01:19;10.40;99.90
54684;DHT22;40582;53.100;6.686;2023-03-23T02:03:47;10.40;99.90
54684;DHT22;40582;53.100;6.686;2023-03-23T02:06:14;10.40;99.90
54684;DHT22;40582;53.100;6.686;2023-03-23T02:08:41;10.50;99.90
54684;DHT22;40582;53.100;6.686;2023-03-23T02:11:20;10.60;99.90
54684;DHT22;40582;53.100;6.686;2023-03-23T02:13:47;10.60;99.90
54684;DHT22;40582;53.100;6.686;2023-03-23T02:18:57;10.60;99.90
54684;DHT22;40582;53.100;6.686;2023-03-23T02:22:04;10.60;99.90
54684;DHT22;40582;53.100;6.686;2023-03-23T02:24:56;10.60;99.90
54684;DHT22;40582;53.100;6.686;2023-03-23T02:35:54;10.50;99.90
54684;DHT22;40582;53.100;6.686;2023-03-23T02:38:31;10.50;99.90
54684;DHT22;40582;53.100;6.686;2023-03-23T02:41:00;10.50;99.90
54684;DHT22;40582;53.100;6.686;2023-03-23T02:43:31;10.50;99.90
54684;DHT22;40582;53.100;6.686;2023-03-23T02:45:58;10.50;99.90
54684;DHT22;40582;53.100;6.686;2023-03-23T02:48:29;10.50;99.90
54684;DHT22;40582;53.100;6.686;2023-03-23T02:50:56;10.50;99.90
54684;DHT22;40582;53.100;6.686;2023-03-23T02:53:24;10.40;99.90
54684;DHT22;40582;53.100;6.686;2023-03-23T02:55:52;10.50;99.90
54684;DHT22;40582;53.100;6.686;2023-03-23T02:58:19;10.50;99.90
54684;DHT22;40582;53.100;6.686;2023-03-23T03:00:45;10.50;99.90
54684;DHT22;40582;53.100;6.686;2023-03-23T03:03:18;10.50;99.90
54684;DHT22;40582;53.100;6.686;2023-03-23T03:06:06;10.50;99.90
54684;DHT22;40582;53.100;6.686;2023-03-23T03:08:57;10.50;99.90
54684;DHT22;40582;53.100;6.686;2023-03-23T03:11:25;10.50;99.90
54684;DHT22;40582;53.100;6.686;2023-03-23T03:14:22;10.50;99.90
54684;DHT22;40582;53.100;6.686;2023-03-23T03:17:06;10.50;99.90
54684;DHT22;40582;53.100;6.686;2023-03-23T03:19:39;10.50;99.90
54684;DHT22;40582;53.100;6.686;2023-03-23T03:22:06;10.60;99.90
54684;DHT22;40582;53.100;6.686;2023-03-23T03:24:33;10.50;99.90
54684;DHT22;40582;53.100;6.686;2023-03-23T03:27:04;10.50;99.90
54684;DHT22;40582;53.100;6.686;2023-03-23T03:29:37;10.50;99.90
54684;DHT22;40582;53.100;6.686;2023-03-23T03:32:11;10.60;99.90
54684;DHT22;40582;53.100;6.686;2023-03-23T03:34:37;10.60;99.90
54684;DHT22;40582;53.100;6.686;2023-03-23T03:37:05;10.60;99.90
54684;DHT22;40582;53.100;6.686;2023-03-23T03:39:34;10.50;99.90
54684;DHT22;40582;53.100;6.686;2023-03-23T03:42:00;10.50;99.90
54684;DHT22;40582;53.100;6.686;2023-03-23T03:44:26;10.50;99.90
54684;DHT22;40582;53.100;6.686;2023-03-23T03:46:51;10.50;99.90
54684;DHT22;40582;53.100;6.686;2023-03-23T03:49:17;10.60;99.90
54684;DHT22;40582;53.100;6.686;2023-03-23T03:51:43;10.60;99.90
54684;DHT22;40582;53.100;6.686;2023-03-23T03:54:08;10.60;99.90
54684;DHT22;40582;53.100;6.686;2023-03-23T03:56:36;10.60;99.90
54684;DHT22;40582;53.100;6.686;2023-03-23T03:59:09;10.60;99.90
54684;DHT22;40582;53.100;6.686;2023-03-23T04:01:37;10.60;99.90
54684;DHT22;40582;53.100;6.686;2023-03-23T04:04:03;10.50;99.90
54684;DHT22;40582;53.100;6.686;2023-03-23T04:06:30;10.50;99.90
54684;DHT22;40582;53.100;6.686;2023-03-23T04:08:57;10.50;99.90
54684;DHT22;40582;53.100;6.686;2023-03-23T04:11:24;10.50;99.90
54684;DHT22;40582;53.100;6.686;2023-03-23T04:13:50;10.50;99.90
54684;DHT22;40582;53.100;6.686;2023-03-23T04:16:16;10.50;99.90
54684;DHT22;40582;53.100;6.686;2023-03-23T04:18:42;10.50;99.90
54684;DHT22;40582;53.100;6.686;2023-03-23T04:21:09;10.50;99.90
54684;DHT22;40582;53.100;6.686;2023-03-23T04:23:35;10.50;99.90
54684;DHT22;40582;53.100;6.686;2023-03-23T04:26:03;10.50;99.90
54684;DHT22;40582;53.100;6.686;2023-03-23T04:28:29;10.50;99.90
54684;DHT22;40582;53.100;6.686;2023-03-23T04:30:55;10.50;99.90
54684;DHT22;40582;53.100;6.686;2023-03-23T04:33:24;10.50;99.90
54684;DHT22;40582;53.100;6.686;2023-03-23T04:35:56;10.60;99.90
54684;DHT22;40582;53.100;6.686;2023-03-23T04:38:23;10.60;99.90
54684;DHT22;40582;53.100;6.686;2023-03-23T04:40:51;10.60;99.90
54684;DHT22;40582;53.100;6.686;2023-03-23T04:43:18;10.60;99.90
54684;DHT22;40582;53.100;6.686;2023-03-23T04:45:47;10.60;99.90
54684;DHT22;40582;53.100;6.686;2023-03-23T04:48:17;10.60;99.90
54684;DHT22;40582;53.100;6.686;2023-03-23T04:50:43;10.60;99.90
54684;DHT22;40582;53.100;6.686;2023-03-23T04:53:09;10.50;99.90
54684;DHT22;40582;53.100;6.686;2023-03-23T04:55:36;10.50;99.90
54684;DHT22;40582;53.100;6.686;2023-03-23T04:58:05;10.50;99.90
54684;DHT22;40582;53.100;6.686;2023-03-23T05:00:32;10.50;99.90
54684;DHT22;40582;53.100;6.686;2023-03-23T05:02:58;10.50;99.90
54684;DHT22;40582;53.100;6.686;2023-03-23T05:05:24;10.40;99.90
54684;DHT22;40582;53.100;6.686;2023-03-23T05:07:51;10.40;99.90
54684;DHT22;40582;53.100;6.686;2023-03-23T05:10:17;10.40;99.90
54684;DHT22;40582;53.100;6.686;2023-03-23T05:12:43;10.30;99.90
54684;DHT22;40582;53.100;6.686;2023-03-23T05:15:10;10.20;99.90
54684;DHT22;40582;53.100;6.686;2023-03-23T05:17:37;10.10;99.90
54684;DHT22;40582;53.100;6.686;2023-03-23T05:20:04;10.10;99.90
54684;DHT22;40582;53.100;6.686;2023-03-23T05:22:33;10.00;99.90
54684;DHT22;40582;53.100;6.686;2023-03-23T05:24:59;10.00;99.90
54684;DHT22;40582;53.100;6.686;2023-03-23T05:27:29;10.00;99.90
54684;DHT22;40582;53.100;6.686;2023-03-23T05:29:58;9.90;99.90
54684;DHT22;40582;53.100;6.686;2023-03-23T05:32:27;9.80;99.90
54684;DHT22;40582;53.100;6.686;2023-03-23T05:34:55;9.80;99.90
54684;DHT22;40582;53.100;6.686;2023-03-23T05:37:22;9.80;99.90
54684;DHT22;40582;53.100;6.686;2023-03-23T05:39:48;9.80;99.90
54684;DHT22;40582;53.100;6.686;2023-03-23T05:42:13;9.90;99.90
54684;DHT22;40582;53.100;6.686;2023-03-23T05:44:39;9.90;99.90
54684;DHT22;40582;53.100;6.686;2023-03-23T05:47:05;10.00;99.90
54684;DHT22;40582;53.100;6.686;2023-03-23T05:49:31;10.00;99.90
54684;DHT22;40582;53.100;6.686;2023-03-23T05:51:57;10.00;99.90
54684;DHT22;40582;53.100;6.686;2023-03-23T05:54:23;10.00;99.90
54684;DHT22;40582;53.100;6.686;2023-03-23T05:56:48;10.00;99.90
54684;DHT22;40582;53.100;6.686;2023-03-23T05:59:14;10.00;99.90
54684;DHT22;40582;53.100;6.686;2023-03-23T06:01:40;10.00;99.90
54684;DHT22;40582;53.100;6.686;2023-03-23T06:04:06;10.10;99.90
54684;DHT22;40582;53.100;6.686;2023-03-23T06:06:32;10.10;99.90
54684;DHT22;40582;53.100;6.686;2023-03-23T06:08:58;10.10;99.90
54684;DHT22;40582;53.100;6.686;2023-03-23T06:11:24;10.20;99.90
54684;DHT22;40582;53.100;6.686;2023-03-23T06:13:51;10.20;99.90
54684;DHT22;40582;53.100;6.686;2023-03-23T06:16:18;10.30;99.90
54684;DHT22;40582;53.100;6.686;2023-03-23T06:18:44;10.30;99.90
54684;DHT22;40582;53.100;6.686;2023-03-23T06:21:11;10.30;99.90
54684;DHT22;40582;53.100;6.686;2023-03-23T06:23:37;10.40;99.90
54684;DHT22;40582;53.100;6.686;2023-03-23T06:26:05;10.40;99.90
54684;DHT22;40582;53.100;6.686;2023-03-23T06:28:32;10.50;99.90
54684;DHT22;40582;53.100;6.686;2023-03-23T06:31:00;10.50;99.90
54684;DHT22;40582;53.100;6.686;2023-03-23T06:33:27;10.60;99.90
54684;DHT22;40582;53.100;6.686;2023-03-23T06:35:53;10.60;99.90
54684;DHT22;40582;53.100;6.686;2023-03-23T06:38:19;10.60;99.90
54684;DHT22;40582;53.100;6.686;2023-03-23T06:40:45;10.60;99.90
54684;DHT22;40582;53.100;6.686;2023-03-23T06:43:12;10.60;99.90
54684;DHT22;40582;53.100;6.686;2023-03-23T06:45:39;10.60;99.90
54684;DHT22;40582;53.100;6.686;2023-03-23T06:48:05;10.60;99.90
54684;DHT22;40582;53.100;6.686;2023-03-23T06:50:31;10.60;99.90
54684;DHT22;40582;53.100;6.686;2023-03-23T06:52:56;10.60;99.90
54684;DHT22;40582;53.100;6.686;2023-03-23T06:55:22;10.60;99.90
54684;DHT22;40582;53.100;6.686;2023-03-23T06:57:48;10.60;99.90
54684;DHT22;40582;53.100;6.686;2023-03-23T07:00:14;10.70;99.90
54684;DHT22;40582;53.100;6.686;2023-03-23T07:02:40;10.80;99.90
54684;DHT22;40582;53.100;6.686;2023-03-23T07:05:07;10.80;99.90
54684;DHT22;40582;53.100;6.686;2023-03-23T07:07:35;10.80;99.90
54684;DHT22;40582;53.100;6.686;2023-03-23T07:10:02;10.90;99.90
54684;DHT22;40582;53.100;6.686;2023-03-23T07:12:28;10.90;99.90
54684;DHT22;40582;53.100;6.686;2023-03-23T07:14:54;10.90;99.90
54684;DHT22;40582;53.100;6.686;2023-03-23T07:17:20;10.90;99.90
54684;DHT22;40582;53.100;6.686;2023-03-23T07:19:46;10.90;99.90
54684;DHT22;40582;53.100;6.686;2023-03-23T07:22:12;10.90;99.90
54684;DHT22;40582;53.100;6.686;2023-03-23T07:24:37;10.90;99.90
54684;DHT22;40582;53.100;6.686;2023-03-23T07:27:03;11.00;99.90
54684;DHT22;40582;53.100;6.686;2023-03-23T07:29:29;10.90;99.90
54684;DHT22;40582;53.100;6.686;2023-03-23T07:31:55;10.90;99.90
54684;DHT22;40582;53.100;6.686;2023-03-23T07:34:21;11.00;99.90
54684;DHT22;40582;53.100;6.686;2023-03-23T07:36:48;11.00;99.90
54684;DHT22;40582;53.100;6.686;2023-03-23T07:39:13;11.30;99.90
54684;DHT22;40582;53.100;6.686;2023-03-23T07:41:39;11.70;99.90
54684;DHT22;40582;53.100;6.686;2023-03-23T07:44:05;11.80;99.90
54684;DHT22;40582;53.100;6.686;2023-03-23T07:46:32;12.60;99.90
54684;DHT22;40582;53.100;6.686;2023-03-23T07:48:58;12.40;99.90
54684;DHT22;40582;53.100;6.686;2023-03-23T07:51:24;12.60;99.90
54684;DHT22;40582;53.100;6.686;2023-03-23T07:53:50;12.50;99.90
54684;DHT22;40582;53.100;6.686;2023-03-23T07:56:17;12.50;99.90
54684;DHT22;40582;53.100;6.686;2023-03-23T07:58:46;12.80;99.90
54684;DHT22;40582;53.100;6.686;2023-03-23T08:01:12;12.90;99.90
54684;DHT22;40582;53.100;6.686;2023-03-23T08:03:39;13.00;99.90
54684;DHT22;40582;53.100;6.686;2023-03-23T08:06:05;12.90;99.90
54684;DHT22;40582;53.100;6.686;2023-03-23T08:08:31;12.80;99.90
54684;DHT22;40582;53.100;6.686;2023-03-23T08:10:57;12.80;99.90
54684;DHT22;40582;53.100;6.686;2023-03-23T08:13:23;12.80;99.90
54684;DHT22;40582;53.100;6.686;2023-03-23T08:15:50;12.80;99.90
54684;DHT22;40582;53.100;6.686;2023-03-23T08:18:16;12.80;99.90
54684;DHT22;40582;53.100;6.686;2023-03-23T08:20:43;12.70;99.90
54684;DHT22;40582;53.100;6.686;2023-03-23T08:23:10;12.70;99.90
54684;DHT22;40582;53.100;6.686;2023-03-23T08:25:36;12.70;99.90
54684;DHT22;40582;53.100;6.686;2023-03-23T08:28:02;12.70;99.90
54684;DHT22;40582;53.100;6.686;2023-03-23T08:30:30;12.80;99.90
54684;DHT22;40582;53.100;6.686;2023-03-23T08:32:59;12.80;99.90
54684;DHT22;40582;53.100;6.686;2023-03-23T08:35:26;12.90;99.90
54684;DHT22;40582;53.100;6.686;2023-03-23T08:37:52;12.90;99.90
54684;DHT22;40582;53.100;6.686;2023-03-23T08:40:21;12.90;99.90
54684;DHT22;40582;53.100;6.686;2023-03-23T08:42:48;12.90;99.90
54684;DHT22;40582;53.100;6.686;2023-03-23T08:45:17;12.80;99.90
54684;DHT22;40582;53.100;6.686;2023-03-23T08:47:44;12.80;99.90
54684;DHT22;40582;53.100;6.686;2023-03-23T08:50:15;12.70;99.90
54684;DHT22;40582;53.100;6.686;2023-03-23T08:52:41;12.70;99.90
54684;DHT22;40582;53.100;6.686;2023-03-23T08:55:09;12.70;99.90
54684;DHT22;40582;53.100;6.686;2023-03-23T08:57:35;12.80;99.90
54684;DHT22;40582;53.100;6.686;2023-03-23T09:00:03;12.90;99.90
54684;DHT22;40582;53.100;6.686;2023-03-23T09:02:40;12.90;99.90
54684;DHT22;40582;53.100;6.686;2023-03-23T09:05:06;13.10;99.90
54684;DHT22;40582;53.100;6.686;2023-03-23T09:07:32;13.40;99.90
54684;DHT22;40582;53.100;6.686;2023-03-23T09:09:58;13.60;99.90
54684;DHT22;40582;53.100;6.686;2023-03-23T09:12:23;13.80;99.90
54684;DHT22;40582;53.100;6.686;2023-03-23T09:14:49;14.00;99.90
54684;DHT22;40582;53.100;6.686;2023-03-23T09:17:15;14.30;99.90
54684;DHT22;40582;53.100;6.686;2023-03-23T09:19:41;14.40;99.90
54684;DHT22;40582;53.100;6.686;2023-03-23T09:22:08;14.60;99.90
54684;DHT22;40582;53.100;6.686;2023-03-23T09:24:34;14.70;99.90
54684;DHT22;40582;53.100;6.686;2023-03-23T09:27:00;14.90;99.90
54684;DHT22;40582;53.100;6.686;2023-03-23T09:29:26;14.90;99.90
54684;DHT22;40582;53.100;6.686;2023-03-23T09:31:53;14.80;99.90
54684;DHT22;40582;53.100;6.686;2023-03-23T09:34:19;14.50;99.90
54684;DHT22;40582;53.100;6.686;2023-03-23T09:36:45;14.50;99.90
54684;DHT22;40582;53.100;6.686;2023-03-23T09:39:11;14.60;99.90
54684;DHT22;40582;53.100;6.686;2023-03-23T09:47:28;14.00;99.90
54684;DHT22;40582;53.100;6.686;2023-03-23T09:50:02;13.80;99.90
54684;DHT22;40582;53.100;6.686;2023-03-23T09:52:48;13.60;99.90
54684;DHT22;40582;53.100;6.686;2023-03-23T09:55:17;13.50;99.90
54684;DHT22;40582;53.100;6.686;2023-03-23T10:00:38;13.20;99.90
54684;DHT22;40582;53.100;6.686;2023-03-23T10:03:17;13.10;99.90
54684;DHT22;40582;53.100;6.686;2023-03-23T10:05:52;12.80;99.90
54684;DHT22;40582;53.100;6.686;2023-03-23T10:08:22;12.60;99.90
54684;DHT22;40582;53.100;6.686;2023-03-23T10:16:30;12.70;99.90
54684;DHT22;40582;53.100;6.686;2023-03-23T10:21:46;13.00;99.90
54684;DHT22;40582;53.100;6.686;2023-03-23T10:24:15;13.10;99.90
54684;DHT22;40582;53.100;6.686;2023-03-23T10:29:15;13.30;99.90
54684;DHT22;40582;53.100;6.686;2023-03-23T10:31:56;13.60;99.90
54684;DHT22;40582;53.100;6.686;2023-03-23T10:39:53;13.50;99.90
54684;DHT22;40582;53.100;6.686;2023-03-23T10:42:36;13.50;99.90
54684;DHT22;40582;53.100;6.686;2023-03-23T10:47:43;13.40;99.90
54684;DHT22;40582;53.100;6.686;2023-03-23T10:50:14;13.30;99.90
54684;DHT22;40582;53.100;6.686;2023-03-23T10:52:44;13.20;99.90
54684;DHT22;40582;53.100;6.686;2023-03-23T10:55:18;13.10;99.90
54684;DHT22;40582;53.100;6.686;2023-03-23T10:58:09;13.10;99.90
54684;DHT22;40582;53.100;6.686;2023-03-23T11:00:32;13.00;99.90
54684;DHT22;40582;53.100;6.686;2023-03-23T11:08:16;13.20;99.90
54684;DHT22;40582;53.100;6.686;2023-03-23T11:11:24;13.20;99.90
54684;DHT22;40582;53.100;6.686;2023-03-23T11:14:18;13.30;99.90
54684;DHT22;40582;53.100;6.686;2023-03-23T11:16:45;13.30;99.90
54684;DHT22;40582;53.100;6.686;2023-03-23T11:19:20;13.50;99.90
54684;DHT22;40582;53.100;6.686;2023-03-23T11:21:49;13.70;99.90
54684;DHT22;40582;53.100;6.686;2023-03-23T11:24:15;14.00;99.90
54684;DHT22;40582;53.100;6.686;2023-03-23T11:26:44;14.20;99.90
54684;DHT22;40582;53.100;6.686;2023-03-23T11:29:19;14.30;99.90
54684;DHT22;40582;53.100;6.686;2023-03-23T11:31:48;14.60;99.90
54684;DHT22;40582;53.100;6.686;2023-03-23T11:34:30;14.80;99.90
54684;DHT22;40582;53.100;6.686;2023-03-23T11:39:55;15.10;99.90
54684;DHT22;40582;53.100;6.686;2023-03-23T11:42:34;15.30;99.90
54684;DHT22;40582;53.100;6.686;2023-03-23T11:47:54;15.70;99.90
54684;DHT22;40582;53.100;6.686;2023-03-23T11:50:25;15.60;99.90
54684;DHT22;40582;53.100;6.686;2023-03-23T11:55:52;15.40;99.90
54684;DHT22;40582;53.100;6.686;2023-03-23T11:58:21;15.30;99.90
54684;DHT22;40582;53.100;6.686;2023-03-23T12:01:00;15.10;99.90
54684;DHT22;40582;53.100;6.686;2023-03-23T12:06:29;14.70;99.90
54684;DHT22;40582;53.100;6.686;2023-03-23T12:09:45;14.70;99.90
54684;DHT22;40582;53.100;6.686;2023-03-23T12:20:09;15.30;99.90
54684;DHT22;40582;53.100;6.686;2023-03-23T12:22:49;15.50;99.90
54684;DHT22;40582;53.100;6.686;2023-03-23T12:31:25;15.40;99.90
54684;DHT22;40582;53.100;6.686;2023-03-23T12:36:40;15.30;99.90
54684;DHT22;40582;53.100;6.686;2023-03-23T12:44:48;15.70;99.90
54684;DHT22;40582;53.100;6.686;2023-03-23T12:50:24;15.60;99.90
54684;DHT22;40582;53.100;6.686;2023-03-23T12:53:22;15.70;99.90
54684;DHT22;40582;53.100;6.686;2023-03-23T12:58:26;15.60;99.90
54684;DHT22;40582;53.100;6.686;2023-03-23T13:01:39;15.80;99.90
54684;DHT22;40582;53.100;6.686;2023-03-23T13:03:58;15.60;99.90
54684;DHT22;40582;53.100;6.686;2023-03-23T13:06:36;15.30;99.90
54684;DHT22;40582;53.100;6.686;2023-03-23T13:09:26;15.20;99.90
54684;DHT22;40582;53.100;6.686;2023-03-23T13:11:54;15.30;99.90
54684;DHT22;40582;53.100;6.686;2023-03-23T13:17:06;15.50;99.90
54684;DHT22;40582;53.100;6.686;2023-03-23T13:22:32;15.60;99.90
54684;DHT22;40582;53.100;6.686;2023-03-23T13:25:06;15.60;99.90
54684;DHT22;40582;53.100;6.686;2023-03-23T13:27:34;15.60;99.90
54684;DHT22;40582;53.100;6.686;2023-03-23T13:30:00;15.60;99.90
54684;DHT22;40582;53.100;6.686;2023-03-23T13:32:39;15.60;99.90
54684;DHT22;40582;53.100;6.686;2023-03-23T13:35:12;15.50;99.90
54684;DHT22;40582;53.100;6.686;2023-03-23T13:37:51;15.60;99.90
54684;DHT22;40582;53.100;6.686;2023-03-23T13:40:24;15.70;99.90
54684;DHT22;40582;53.100;6.686;2023-03-23T13:42:55;15.70;99.90
54684;DHT22;40582;53.100;6.686;2023-03-23T13:45:24;15.60;99.90
54684;DHT22;40582;53.100;6.686;2023-03-23T13:50:59;15.60;99.90
54684;DHT22;40582;53.100;6.686;2023-03-23T13:53:46;15.60;99.90
54684;DHT22;40582;53.100;6.686;2023-03-23T13:59:05;15.80;99.90
54684;DHT22;40582;53.100;6.686;2023-03-23T14:01:37;15.80;99.90
54684;DHT22;40582;53.100;6.686;2023-03-23T14:04:07;15.90;99.90
54684;DHT22;40582;53.100;6.686;2023-03-23T14:06:36;15.90;99.90
54684;DHT22;40582;53.100;6.686;2023-03-23T14:09:31;15.70;99.90
54684;DHT22;40582;53.100;6.686;2023-03-23T14:12:02;15.60;99.90
54684;DHT22;40582;53.100;6.686;2023-03-23T14:14:40;15.80;99.90
54684;DHT22;40582;53.100;6.686;2023-03-23T14:17:18;15.90;99.90
54684;DHT22;40582;53.100;6.686;2023-03-23T14:19:54;15.80;99.90
54684;DHT22;40582;53.100;6.686;2023-03-23T14:24:52;15.70;99.90
54684;DHT22;40582;53.100;6.686;2023-03-23T14:27:23;15.70;99.90
54684;DHT22;40582;53.100;6.686;2023-03-23T14:30:04;15.60;99.90
54684;DHT22;40582;53.100;6.686;2023-03-23T14:32:31;15.40;99.90
54684;DHT22;40582;53.100;6.686;2023-03-23T14:34:59;15.20;99.90
54684;DHT22;40582;53.100;6.686;2023-03-23T14:37:26;15.20;99.90
54684;DHT22;40582;53.100;6.686;2023-03-23T14:39:55;15.10;99.90
54684;DHT22;40582;53.100;6.686;2023-03-23T14:42:30;15.10;99.90
54684;DHT22;40582;53.100;6.686;2023-03-23T14:44:57;15.10;99.90
54684;DHT22;40582;53.100;6.686;2023-03-23T14:47:34;15.10;99.90
54684;DHT22;40582;53.100;6.686;2023-03-23T14:50:03;15.00;99.90
54684;DHT22;40582;53.100;6.686;2023-03-23T14:52:38;14.90;99.90
54684;DHT22;40582;53.100;6.686;2023-03-23T14:55:16;14.80;99.90
54684;DHT22;40582;53.100;6.686;2023-03-23T14:57:42;14.70;99.90
54684;DHT22;40582;53.100;6.686;2023-03-23T15:00:19;14.70;99.90
54684;DHT22;40582;53.100;6.686;2023-03-23T15:02:48;14.70;99.90
54684;DHT22;40582;53.100;6.686;2023-03-23T15:07:46;14.70;99.90
54684;DHT22;40582;53.100;6.686;2023-03-23T15:10:20;14.70;99.90
54684;DHT22;40582;53.100;6.686;2023-03-23T15:12:48;14.60;99.90
54684;DHT22;40582;53.100;6.686;2023-03-23T15:15:38;14.60;99.90
54684;DHT22;40582;53.100;6.686;2023-03-23T15:18:04;14.60;99.90
54684;DHT22;40582;53.100;6.686;2023-03-23T15:20:43;14.50;99.90
54684;DHT22;40582;53.100;6.686;2023-03-23T15:23:16;14.50;99.90
54684;DHT22;40582;53.100;6.686;2023-03-23T15:25:50;14.40;99.90
54684;DHT22;40582;53.100;6.686;2023-03-23T15:28:28;14.40;99.90
54684;DHT22;40582;53.100;6.686;2023-03-23T15:30:57;14.30;99.90
54684;DHT22;40582;53.100;6.686;2023-03-23T15:33:26;14.30;99.90
54684;DHT22;40582;53.100;6.686;2023-03-23T15:35:55;14.30;99.90
54684;DHT22;40582;53.100;6.686;2023-03-23T15:38:29;14.30;99.90
54684;DHT22;40582;53.100;6.686;2023-03-23T15:40:59;14.30;99.90
54684;DHT22;40582;53.100;6.686;2023-03-23T15:43:31;14.20;99.90
54684;DHT22;40582;53.100;6.686;2023-03-23T15:46:04;14.20;99.90
54684;DHT22;40582;53.100;6.686;2023-03-23T15:48:46;14.10;99.90
54684;DHT22;40582;53.100;6.686;2023-03-23T15:51:13;14.10;99.90
54684;DHT22;40582;53.100;6.686;2023-03-23T15:53:39;14.10;99.90
54684;DHT22;40582;53.100;6.686;2023-03-23T15:56:08;14.00;99.90
54684;DHT22;40582;53.100;6.686;2023-03-23T15:58:34;14.00;99.90
54684;DHT22;40582;53.100;6.686;2023-03-23T16:01:04;14.00;99.90
54684;DHT22;40582;53.100;6.686;2023-03-23T16:03:51;13.90;99.90
54684;DHT22;40582;53.100;6.686;2023-03-23T16:06:20;13.90;99.90
54684;DHT22;40582;53.100;6.686;2023-03-23T16:08:46;13.80;99.90
54684;DHT22;40582;53.100;6.686;2023-03-23T16:11:13;13.80;99.90
54684;DHT22;40582;53.100;6.686;2023-03-23T16:13:40;13.70;99.90
54684;DHT22;40582;53.100;6.686;2023-03-23T16:16:12;13.60;99.90
54684;DHT22;40582;53.100;6.686;2023-03-23T16:18:39;13.60;99.90
54684;DHT22;40582;53.100;6.686;2023-03-23T16:21:05;13.50;99.90
54684;DHT22;40582;53.100;6.686;2023-03-23T16:23:30;13.50;99.90
54684;DHT22;40582;53.100;6.686;2023-03-23T16:25:56;13.40;99.90
54684;DHT22;40582;53.100;6.686;2023-03-23T16:28:22;13.40;99.90
54684;DHT22;40582;53.100;6.686;2023-03-23T16:30:47;13.40;99.90
54684;DHT22;40582;53.100;6.686;2023-03-23T16:33:13;13.40;99.90
54684;DHT22;40582;53.100;6.686;2023-03-23T16:35:39;13.40;99.90
54684;DHT22;40582;53.100;6.686;2023-03-23T16:38:05;13.40;99.90
54684;DHT22;40582;53.100;6.686;2023-03-23T16:40:33;13.50;99.90
54684;DHT22;40582;53.100;6.686;2023-03-23T16:42:59;13.40;99.90
54684;DHT22;40582;53.100;6.686;2023-03-23T16:45:24;13.40;99.90
54684;DHT22;40582;53.100;6.686;2023-03-23T16:47:51;13.30;99.90
54684;DHT22;40582;53.100;6.686;2023-03-23T16:50:20;13.20;99.90
54684;DHT22;40582;53.100;6.686;2023-03-23T16:52:46;13.20;99.90
54684;DHT22;40582;53.100;6.686;2023-03-23T16:55:14;13.20;99.90
54684;DHT22;40582;53.100;6.686;2023-03-23T16:57:40;13.10;99.90
54684;DHT22;40582;53.100;6.686;2023-03-23T17:00:10;13.10;99.90
54684;DHT22;40582;53.100;6.686;2023-03-23T17:02:37;13.10;99.90
54684;DHT22;40582;53.100;6.686;2023-03-23T17:05:05;13.10;99.90
54684;DHT22;40582;53.100;6.686;2023-03-23T17:07:30;13.10;99.90
54684;DHT22;40582;53.100;6.686;2023-03-23T17:09:56;13.00;99.90
54684;DHT22;40582;53.100;6.686;2023-03-23T17:12:22;13.00;99.90
54684;DHT22;40582;53.100;6.686;2023-03-23T17:14:48;12.90;99.90
54684;DHT22;40582;53.100;6.686;2023-03-23T17:17:13;12.90;99.90
54684;DHT22;40582;53.100;6.686;2023-03-23T17:19:39;12.90;99.90
54684;DHT22;40582;53.100;6.686;2023-03-23T17:22:05;12.80;99.90
54684;DHT22;40582;53.100;6.686;2023-03-23T17:24:31;12.80;99.90
54684;DHT22;40582;53.100;6.686;2023-03-23T17:26:57;12.80;99.90